Latest Conditions
At L.F.Wade Int. Airport
Recorded at 7:55 pm
Mostly Cloudy
Temp.: 
22°C/71°F
Humidity: 
72%
Wind: 
SSE 12KT
or 14mph
UV Index: 
0
Island Observations
 
Observations
Tuesday, December 01, 2020

Observations are in local time and taken at least once an hour, or upon the start and end of specified events such as showers and thunderstorms.

Time Sky / Weather Wind Speed/Gusts Temp. R.H. Pressure
     knots (mph)  °C (°F)  %  mb / "Hg
 19:55 Mostly Cloudy  SSE 12/0 (14/0) 22(71) 72 1018 / 30.05
 18:55 Mostly Cloudy  SSE 13/0 (15/0) 22(71) 70 1018 / 30.05
 17:55 Mostly Cloudy  SSE 15/0 (17/0) 22(71) 70 1018 / 30.05
 16:55 Mostly Cloudy  SSE 13/0 (15/0) 22(71) 71 1018 / 30.05
 15:55 Mostly Cloudy  SSE 13/0 (15/0) 22(72) 70 1018 / 30.06
 14:55 Mostly Cloudy  SE 14/0 (16/0) 23(73) 69 1018 / 30.07
 13:55 Mostly Cloudy  SE 14/0 (16/0) 23(73) 67 1019 / 30.08
 12:55 Mostly Cloudy Showers SSE 13/0 (15/0) 23(74) 67 1019 / 30.10
 11:55 Mostly Cloudy Showers SE 15/0 (17/0) 23(73) 67 1020 / 30.13
 11:35 Mostly Cloudy Showers SSE 14/0 (16/0) 23(73) 68 1021 / 30.14
 11:20 Mostly Cloudy Showers SSE 12/0 (14/0) 22(71) 71 1021 / 30.14
 10:55 Mostly Cloudy Showers SE 13/0 (15/0) 22(72) 74 1021 / 30.15
 09:55 Partly Cloudy  SE 13/0 (15/0) 22(72) 69 1021 / 30.16
 08:55 Mostly Cloudy Showers SE 14/0 (16/0) 22(72) 71 1021 / 30.15
 07:55 Partly Cloudy Showers SE 14/0 (16/0) 21(71) 74 1020 / 30.13
 06:55 Partly Cloudy Showers SE 15/0 (17/0) 21(70) 75 1020 / 30.12
 05:55 Mostly Cloudy Showers SSE 14/0 (16/0) 21(70) 74 1020 / 30.11
 04:55 Mostly Cloudy Showers SE 14/0 (16/0) 21(70) 75 1020 / 30.12
 03:55 Mostly Cloudy  SSE 11/0 (13/0) 21(70) 70 1020 / 30.13
 02:55 Mostly Cloudy Showers SSE 13/0 (15/0) 21(70) 73 1021 / 30.14
 01:55 Mostly Cloudy Showers SSE 13/0 (15/0) 21(69) 76 1021 / 30.15
 00:55 Partly Cloudy  SE 15/0 (17/0) 21(70) 68 1021 / 30.15
 23:55 Partly Cloudy Showers SE 14/0 (16/0) 21(70) 67 1022 / 30.17
 22:55 Mostly Cloudy  SE 14/0 (16/0) 21(71) 66 1022 / 30.18
 21:55 Partly Cloudy  SE 14/0 (16/0) 21(70) 67 1022 / 30.19
 20:55 Partly Cloudy  SE 14/0 (16/0) 21(70) 65 1023 / 30.20
 19:55 Partly Cloudy  SE 14/0 (16/0) 21(70) 64 1022 / 30.19
 18:55 Partly Cloudy  SE 14/0 (16/0) 21(70) 63 1022 / 30.18
 17:55 Few Clouds  ESE 13/0 (15/0) 21(70) 62 1022 / 30.17
 16:55 Partly Cloudy  ESE 14/0 (16/0) 21(70) 63 1021 / 30.16
 15:55 Partly Cloudy  SE 16/0 (18/0) 22(71) 59 1021 / 30.15
 14:55 Few Clouds  ESE 17/0 (20/0) 22(72) 59 1021 / 30.15
 13:55 Partly Cloudy  ESE 15/0 (17/0) 22(71) 62 1022 / 30.17
 12:55 Mostly Cloudy  ESE 16/0 (18/0) 22(72) 59 1022 / 30.19
 11:55 Partly Cloudy  ESE 15/0 (17/0) 23(74) 53 1023 / 30.21
 10:55 Partly Cloudy  ESE 18/0 (21/0) 22(72) 56 1024 / 30.23
 09:55 Partly Cloudy  E 16/0 (18/0) 22(72) 50 1024 / 30.24
 08:55 Partly Cloudy  E 14/0 (16/0) 22(71) 50 1024 / 30.24
 07:55 Mostly Cloudy  E 14/0 (16/0) 20(69) 57 1024 / 30.23
 06:55 Mostly Cloudy Showers E 14/0 (16/0) 20(69) 59 1023 / 30.22
 05:55 Mostly Cloudy Showers E 12/0 (14/0) 20(68) 63 1023 / 30.21
 04:55 Mostly Cloudy Showers ENE 9/0 (10/0) 20(68) 65 1023 / 30.20
 04:30 Mostly Cloudy Showers E 11/0 (13/0) 20(68) 65 1022 / 30.19
 04:02 Mostly Cloudy Showers NE 8/0 (9/0) 20(68) 64 1022 / 30.19
 03:55 Mostly Cloudy Showers ENE 9/0 (10/0) 20(67) 64 1022 / 30.19
 02:55 Partly Cloudy  ENE 9/0 (10/0) 19(67) 64 1023 / 30.20
 01:55 Partly Cloudy  ENE 7/0 (8/0) 19(66) 63 1023 / 30.20
 00:55 Few Clouds  ENE 8/0 (9/0) 19(66) 57 1023 / 30.20
 23:55 Partly Cloudy  NE 9/0 (10/0) 19(66) 52 1023 / 30.20
 22:55 Partly Cloudy  NNE 8/0 (9/0) 19(67) 52 1023 / 30.21
 21:55 Mostly Cloudy  NE 10/0 (12/0) 20(68) 57 1023 / 30.20
 20:55 Partly Cloudy  NNE 9/0 (10/0) 20(67) 53 1022 / 30.19
 19:55 Partly Cloudy  NNE 10/0 (12/0) 20(68) 54 1022 / 30.17
 18:55 Mostly Cloudy  NNE 9/0 (10/0) 20(68) 57 1021 / 30.15
 17:55 Partly Cloudy  NNE 7/0 (8/0) 20(69) 57 1021 / 30.14
 16:55 Partly Cloudy  N 8/0 (9/0) 20(69) 50 1020 / 30.13
 15:55 Partly Cloudy  N 9/0 (10/0) 21(69) 49 1020 / 30.11
 14:55 Partly Cloudy  N 12/0 (14/0) 21(70) 47 1019 / 30.09
 13:55 Partly Cloudy  N 12/0 (14/0) 22(71) 47 1019 / 30.09
 12:55 Partly Cloudy  N 13/0 (15/0) 22(71) 52 1019 / 30.09
 11:55 Partly Cloudy  N 11/0 (13/0) 22(71) 54 1019 / 30.10
 10:55 Partly Cloudy  N 12/0 (14/0) 22(72) 50 1020 / 30.12
 09:55 Partly Cloudy  N 14/0 (16/0) 21(70) 49 1019 / 30.10
 08:55 Mostly Cloudy  N 14/0 (16/0) 21(70) 57 1018 / 30.07
 07:55 Partly Cloudy  NNW 15/0 (17/0) 21(69) 58 1017 / 30.04
 06:55 Mostly Cloudy  N 16/0 (18/0) 21(69) 63 1016 / 30.00
 05:55 Mostly Cloudy  N 15/0 (17/0) 21(70) 64 1015 / 29.96
 04:55 Mostly Cloudy  NNW 16/0 (18/0) 22(71) 75 1014 / 29.95
 03:55 Overcast  NNW 13/0 (15/0) 22(71) 73 1013 / 29.92
 02:55 Mostly Cloudy  NNW 15/0 (17/0) 22(72) 76 1013 / 29.91
 01:55 Overcast  NW 14/0 (16/0) 22(72) 71 1013 / 29.92
 00:55 Overcast  NNW 14/0 (16/0) 22(72) 74 1013 / 29.92
 23:55 Mostly Cloudy  WNW 12/0 (14/0) 22(72) 80 1013 / 29.91
 22:55 Mostly Cloudy Showers WNW 13/0 (15/0) 22(71) 86 1013 / 29.91
 22:31 Mostly Cloudy Showers WNW 13/0 (15/0) 22(71) 84 1013 / 29.91
 22:23 Mostly Cloudy Showers W 10/0 (12/0) 22(71) 86 1013 / 29.92
 21:55 Mostly Cloudy Showers WSW 10/0 (12/0) 22(71) 85 1013 / 29.91
 20:55 Mostly Cloudy  W 11/0 (13/0) 22(71) 80 1013 / 29.90
 19:55 Mostly Cloudy  W 10/0 (12/0) 21(70) 79 1013 / 29.90
 18:55 Mostly Cloudy  W 13/0 (15/0) 21(71) 78 1013 / 29.91
 17:55 Mostly Cloudy  WNW 10/0 (12/0) 21(70) 77 1012 / 29.89
 16:55 Mostly Cloudy  WNW 10/0 (12/0) 21(70) 72 1012 / 29.89
 15:55 Mostly Cloudy  W 13/0 (15/0) 22(71) 69 1012 / 29.89
 14:55 Mostly Cloudy  W 12/0 (14/0) 23(73) 69 1012 / 29.89
 13:55 Partly Cloudy  WNW 11/0 (13/0) 23(73) 69 1013 / 29.90
 13:31 Partly Cloudy  NW 8/0 (9/0) 22(72) 72 1012 / 29.89
 13:17 Mostly Cloudy Showers WNW 13/0 (15/0) 22(71) 75 1013 / 29.91
 12:55 Partly Cloudy  WNW 11/0 (13/0) 23(73) 65 1013 / 29.91
 11:55 Few Clouds  NW 9/0 (10/0) 23(74) 66 1014 / 29.94
 10:55 Partly Cloudy  NNW 10/0 (12/0) 23(73) 66 1014 / 29.95
 09:55 Few Clouds  NNW 9/0 (10/0) 23(73) 68 1015 / 29.96
 08:55 Few Clouds  NNW 9/0 (10/0) 22(72) 72 1014 / 29.95
 07:55 Partly Cloudy  NNW 8/0 (9/0) 22(71) 75 1014 / 29.94
 06:55 Few Clouds  N 8/0 (9/0) 21(70) 78 1013 / 29.92
 05:55 Partly Cloudy  N 8/0 (9/0) 21(70) 77 1013 / 29.91
 04:55 Mostly Cloudy  NNW 11/0 (13/0) 21(71) 78 1013 / 29.91
 03:55 Mostly Cloudy Showers NNW 10/0 (12/0) 21(70) 83 1013 / 29.92
 03:20 Mostly Cloudy Showers NNW 10/0 (12/0) 21(70) 87 1013 / 29.92
 02:55 Mostly Cloudy Drizzle N 11/0 (13/0) 20(68) 90 1014 / 29.93
 02:32 Mostly Cloudy Showers N 9/0 (10/0) 21(70) 87 1014 / 29.94
Island AWOS